createdAt,value
2022-08-26T00:00:53.202Z,14.80
2022-08-26T00:03:21.378Z,14.05
2022-08-26T00:05:49.251Z,14.25
2022-08-26T00:08:17.254Z,15.20
2022-08-26T00:10:44.601Z,14.38
2022-08-26T00:13:12.633Z,13.90
2022-08-26T00:15:40.326Z,14.63
2022-08-26T00:18:16.833Z,15.20
2022-08-26T00:20:50.406Z,15.45
2022-08-26T00:23:17.756Z,16.73
2022-08-26T00:25:45.075Z,15.50
2022-08-26T00:28:12.739Z,14.38
2022-08-26T00:30:41.277Z,16.38
2022-08-26T00:33:09.670Z,15.23
2022-08-26T00:35:38.340Z,15.95
2022-08-26T00:38:11.175Z,15.07
2022-08-26T00:40:40.638Z,16.10
2022-08-26T00:43:09.579Z,16.63
2022-08-26T00:45:43.304Z,15.60
2022-08-26T00:48:11.317Z,16.73
2022-08-26T00:50:41.576Z,16.83
2022-08-26T00:53:10.922Z,16.58
2022-08-26T00:55:40.804Z,15.65
2022-08-26T00:58:08.509Z,15.27
2022-08-26T01:00:35.832Z,15.82
2022-08-26T01:03:03.472Z,15.93
2022-08-26T01:05:32.726Z,16.83
2022-08-26T01:08:00.174Z,15.93
2022-08-26T01:10:31.163Z,17.17
2022-08-26T01:13:00.214Z,16.35
2022-08-26T01:15:35.068Z,16.05
2022-08-26T01:18:06.224Z,15.73
2022-08-26T01:20:41.102Z,16.70
2022-08-26T01:23:10.269Z,16.15
2022-08-26T01:25:40.348Z,15.75
2022-08-26T01:28:14.068Z,17.10
2022-08-26T01:30:43.159Z,17.63
2022-08-26T01:33:12.548Z,16.40
2022-08-26T01:35:40.843Z,16.02
2022-08-26T01:38:08.605Z,16.30
2022-08-26T01:40:38.491Z,15.65
2022-08-26T01:43:08.326Z,16.23
2022-08-26T01:45:37.252Z,16.48
2022-08-26T01:48:07.525Z,16.70
2022-08-26T01:50:35.885Z,16.33
2022-08-26T01:53:06.062Z,15.63
2022-08-26T01:55:34.218Z,16.70
2022-08-26T01:58:05.267Z,17.20
2022-08-26T02:00:35.297Z,15.95
2022-08-26T02:03:04.636Z,16.45
2022-08-26T02:08:44.541Z,17.27
2022-08-26T02:11:12.366Z,16.05
2022-08-26T02:13:41.536Z,16.23
2022-08-26T02:16:10.253Z,16.50
2022-08-26T02:18:39.728Z,17.73
2022-08-26T02:21:07.901Z,17.73
2022-08-26T02:23:35.862Z,17.75
2022-08-26T02:26:03.118Z,18.30
2022-08-26T02:28:33.102Z,17.92
2022-08-26T02:31:00.661Z,18.42
2022-08-26T02:33:30.321Z,17.23
2022-08-26T02:35:57.778Z,16.85
2022-08-26T02:38:25.272Z,16.33
2022-08-26T02:40:52.569Z,17.40
2022-08-26T02:43:19.851Z,17.63
2022-08-26T02:46:01.623Z,18.58
2022-08-26T02:48:29.777Z,17.63
2022-08-26T02:50:58.550Z,16.73
2022-08-26T02:53:26.365Z,18.17
2022-08-26T02:55:55.140Z,17.58
2022-08-26T02:58:22.412Z,19.15
2022-08-26T03:01:16.520Z,19.25
2022-08-26T03:03:44.327Z,17.08
2022-08-26T03:06:11.840Z,17.45
2022-08-26T03:08:39.113Z,17.30
2022-08-26T03:11:07.045Z,17.58
2022-08-26T03:13:34.693Z,16.27
2022-08-26T03:16:02.481Z,18.30
2022-08-26T03:18:29.862Z,17.98
2022-08-26T03:20:58.051Z,17.27
2022-08-26T03:23:25.443Z,17.25
2022-08-26T03:25:53.063Z,17.50
2022-08-26T03:28:20.604Z,17.77
2022-08-26T03:30:48.441Z,17.08
2022-08-26T03:33:16.409Z,18.40
2022-08-26T03:35:44.944Z,18.52
2022-08-26T03:38:12.279Z,19.23
2022-08-26T03:40:40.005Z,20.05
2022-08-26T03:43:09.708Z,19.35
2022-08-26T03:45:38.434Z,19.75
2022-08-26T03:48:07.108Z,18.17
2022-08-26T03:50:36.145Z,17.38
2022-08-26T03:53:04.232Z,17.98
2022-08-26T03:55:37.428Z,17.20
2022-08-26T03:58:05.168Z,17.45
2022-08-26T04:00:32.581Z,16.73
2022-08-26T04:03:01.936Z,17.58
2022-08-26T04:05:29.692Z,17.10
2022-08-26T04:07:57.291Z,16.02
2022-08-26T04:10:29.031Z,17.30
2022-08-26T04:12:58.781Z,16.35
2022-08-26T04:15:27.451Z,17.23
2022-08-26T04:17:55.881Z,17.05
2022-08-26T04:20:23.656Z,16.45
2022-08-26T04:22:51.190Z,17.45
2022-08-26T04:25:18.462Z,15.93
2022-08-26T04:27:45.969Z,16.42
2022-08-26T04:30:16.735Z,15.82
2022-08-26T04:32:44.550Z,17.00
2022-08-26T04:35:12.186Z,16.67
2022-08-26T04:37:40.100Z,15.63
2022-08-26T04:40:11.245Z,15.23
2022-08-26T04:42:38.806Z,16.23
2022-08-26T04:45:10.399Z,15.32
2022-08-26T04:47:39.210Z,15.80
2022-08-26T04:50:07.444Z,14.23
2022-08-26T04:52:35.355Z,12.80
2022-08-26T04:55:02.977Z,13.73
2022-08-26T04:57:33.447Z,12.45
2022-08-26T05:00:00.730Z,11.82
2022-08-26T05:02:28.686Z,12.00
2022-08-26T05:04:55.946Z,11.23
2022-08-26T05:07:23.317Z,10.70
2022-08-26T05:09:50.841Z,10.43
2022-08-26T05:12:18.296Z,10.43
2022-08-26T05:14:46.296Z,10.77
2022-08-26T05:17:14.903Z,9.48
2022-08-26T05:19:42.989Z,9.52
2022-08-26T05:22:10.435Z,9.50
2022-08-26T05:24:41.575Z,10.18
2022-08-26T05:27:11.703Z,9.82
2022-08-26T05:29:40.160Z,9.83
2022-08-26T05:32:07.849Z,10.38
2022-08-26T05:34:35.211Z,9.57
2022-08-26T05:37:05.915Z,10.73
2022-08-26T05:39:33.597Z,10.32
2022-08-26T05:42:01.611Z,10.13
2022-08-26T05:44:29.610Z,9.48
2022-08-26T05:47:17.211Z,9.00
2022-08-26T05:49:51.654Z,9.52
2022-08-26T05:52:19.520Z,9.75
2022-08-26T05:54:47.316Z,8.70
2022-08-26T05:57:23.092Z,9.32
2022-08-26T05:59:50.953Z,9.77
2022-08-26T06:02:18.294Z,8.98
2022-08-26T06:04:46.756Z,8.82
2022-08-26T06:07:14.285Z,8.80
2022-08-26T06:09:42.200Z,9.80
2022-08-26T06:12:09.550Z,9.00
2022-08-26T06:14:37.105Z,8.57
2022-08-26T06:17:04.348Z,9.75
2022-08-26T06:19:32.886Z,8.57
2022-08-26T06:22:01.994Z,8.73
2022-08-26T06:24:29.247Z,9.60
2022-08-26T06:27:01.810Z,9.18
2022-08-26T06:29:30.671Z,9.00
2022-08-26T06:31:58.448Z,9.27
2022-08-26T06:34:29.801Z,9.38
2022-08-26T06:37:01.381Z,8.63
2022-08-26T06:41:58.369Z,8.77
2022-08-26T06:44:26.108Z,9.25
2022-08-26T06:46:54.696Z,9.63
2022-08-26T06:49:26.537Z,8.80
2022-08-26T06:51:55.912Z,9.40
2022-08-26T06:54:23.652Z,9.18
2022-08-26T06:56:51.105Z,9.00
2022-08-26T06:59:18.588Z,9.88
2022-08-26T07:01:46.019Z,8.95
2022-08-26T07:04:15.617Z,8.73
2022-08-26T07:06:44.497Z,8.00
2022-08-26T07:09:13.088Z,8.48
2022-08-26T07:11:41.340Z,8.55
2022-08-26T07:14:08.932Z,8.50
2022-08-26T07:16:36.386Z,7.85
2022-08-26T07:19:11.148Z,8.32
2022-08-26T07:21:39.756Z,8.32
2022-08-26T07:24:07.674Z,7.78
2022-08-26T07:26:34.953Z,7.70
2022-08-26T07:29:02.592Z,8.05
2022-08-26T07:31:34.735Z,8.23
2022-08-26T07:34:06.896Z,8.50
2022-08-26T07:36:34.551Z,7.22
2022-08-26T07:39:01.854Z,8.02
2022-08-26T07:43:56.622Z,8.60
2022-08-26T07:46:29.945Z,7.43
2022-08-26T07:48:58.399Z,7.43
2022-08-26T07:51:26.039Z,7.97
2022-08-26T07:53:54.321Z,8.57
2022-08-26T07:56:22.422Z,7.85
2022-08-26T07:58:51.478Z,7.43
2022-08-26T08:01:23.354Z,6.30
2022-08-26T08:03:51.967Z,6.57
2022-08-26T08:06:23.203Z,7.47
2022-08-26T08:08:55.273Z,7.57
2022-08-26T08:11:23.433Z,7.85
2022-08-26T08:13:56.505Z,7.40
2022-08-26T08:16:25.879Z,7.22
2022-08-26T08:18:53.909Z,8.30
2022-08-26T08:21:23.808Z,7.13
2022-08-26T08:23:53.279Z,7.85
2022-08-26T08:26:20.915Z,7.45
2022-08-26T08:28:48.525Z,7.57
2022-08-26T08:31:52.006Z,7.38
2022-08-26T08:34:11.050Z,7.97
2022-08-26T08:36:38.524Z,7.75
2022-08-26T08:39:06.503Z,8.55
2022-08-26T08:41:36.741Z,7.72
2022-08-26T08:44:08.742Z,7.80
2022-08-26T08:46:37.837Z,7.03
2022-08-26T08:49:06.258Z,7.45
2022-08-26T08:51:42.666Z,7.00
2022-08-26T08:54:11.466Z,7.22
2022-08-26T08:56:50.007Z,7.15
2022-08-26T08:59:28.218Z,7.07
2022-08-26T09:01:55.582Z,7.00
2022-08-26T09:04:25.934Z,7.05
2022-08-26T09:06:54.882Z,6.90
2022-08-26T09:09:39.434Z,6.70
2022-08-26T09:12:09.172Z,6.95
2022-08-26T09:14:36.647Z,7.20
2022-08-26T09:17:16.854Z,6.70
2022-08-26T09:19:49.604Z,6.85
2022-08-26T09:22:30.846Z,7.07
2022-08-26T09:24:58.409Z,5.57
2022-08-26T09:27:36.274Z,5.43
2022-08-26T09:30:05.888Z,5.60
2022-08-26T09:32:33.468Z,6.05
2022-08-26T09:35:03.501Z,5.57
2022-08-26T09:37:33.744Z,5.68
2022-08-26T09:40:16.102Z,5.40
2022-08-26T09:42:43.858Z,6.05
2022-08-26T09:45:11.660Z,5.25
2022-08-26T09:47:40.874Z,4.70
2022-08-26T09:50:09.705Z,5.30
2022-08-26T09:52:37.498Z,5.03
2022-08-26T09:57:43.763Z,5.13
2022-08-26T10:00:24.115Z,5.43
2022-08-26T10:02:54.832Z,5.10
2022-08-26T10:05:41.247Z,4.80
2022-08-26T10:08:17.266Z,5.63
2022-08-26T10:10:45.130Z,5.22
2022-08-26T10:13:16.845Z,5.78
2022-08-26T10:15:50.540Z,5.70
2022-08-26T10:18:34.373Z,5.93
2022-08-26T10:21:08.943Z,6.15
2022-08-26T10:26:12.156Z,5.93
2022-08-26T10:28:49.816Z,5.70
2022-08-26T10:31:17.300Z,6.00
2022-08-26T10:33:47.618Z,5.97
2022-08-26T10:36:20.226Z,6.28
2022-08-26T10:38:47.756Z,5.85
2022-08-26T10:41:20.453Z,5.70
2022-08-26T10:43:50.816Z,5.80
2022-08-26T10:46:20.682Z,5.32
2022-08-26T10:48:52.135Z,4.97
2022-08-26T10:51:24.012Z,5.50
2022-08-26T10:54:11.810Z,5.70
2022-08-26T10:56:45.752Z,4.90
2022-08-26T10:59:19.675Z,4.53
2022-08-26T11:02:06.135Z,4.88
2022-08-26T11:04:51.689Z,4.53
2022-08-26T11:07:28.727Z,4.32
2022-08-26T11:10:00.282Z,4.60
2022-08-26T11:12:37.272Z,4.68
2022-08-26T11:15:05.818Z,4.40
2022-08-26T11:17:45.515Z,4.80
2022-08-26T11:20:31.481Z,4.80
2022-08-26T11:23:17.648Z,3.95
2022-08-26T11:25:56.974Z,3.95
2022-08-26T11:28:36.936Z,3.97
2022-08-26T11:31:07.815Z,3.85
2022-08-26T11:34:05.116Z,3.95
2022-08-26T11:36:41.547Z,4.03
2022-08-26T11:39:24.413Z,3.90
2022-08-26T11:41:53.496Z,3.50
2022-08-26T11:44:25.136Z,3.67
2022-08-26T11:46:57.702Z,3.85
2022-08-26T11:49:25.754Z,3.58
2022-08-26T11:52:07.127Z,4.00
2022-08-26T11:54:35.955Z,4.03
2022-08-26T11:57:09.537Z,3.97
2022-08-26T11:59:40.294Z,3.92
2022-08-26T12:02:12.986Z,3.90
2022-08-26T12:04:42.914Z,3.85
2022-08-26T12:07:10.325Z,3.72
2022-08-26T12:09:49.980Z,3.35
2022-08-26T12:12:21.540Z,3.50
2022-08-26T12:14:49.159Z,3.63
2022-08-26T12:17:25.832Z,3.53
2022-08-26T12:19:53.257Z,3.75
2022-08-26T12:22:28.218Z,3.58
2022-08-26T12:25:03.962Z,3.83
2022-08-26T12:27:32.481Z,3.50
2022-08-26T12:30:01.072Z,3.83
2022-08-26T12:32:29.731Z,3.80
2022-08-26T12:34:57.490Z,3.13
2022-08-26T12:37:25.528Z,3.22
2022-08-26T12:39:53.144Z,2.75
2022-08-26T12:42:20.522Z,3.33
2022-08-26T12:44:54.313Z,3.03
2022-08-26T12:47:42.956Z,4.63
2022-08-26T12:50:11.044Z,3.42
2022-08-26T12:52:57.027Z,3.38
2022-08-26T12:55:35.309Z,3.40
2022-08-26T12:58:23.840Z,3.50
2022-08-26T13:00:52.722Z,3.20
2022-08-26T13:03:28.423Z,3.40
2022-08-26T13:06:27.963Z,3.65
2022-08-26T13:08:57.554Z,3.60
2022-08-26T13:11:26.765Z,3.60
2022-08-26T13:14:07.522Z,3.35
2022-08-26T13:16:43.775Z,3.22
2022-08-26T13:19:12.304Z,3.47
2022-08-26T13:22:05.834Z,2.92
2022-08-26T13:24:43.873Z,3.28
2022-08-26T13:27:12.345Z,3.70
2022-08-26T13:29:42.771Z,3.10
2022-08-26T13:32:10.186Z,3.55
2022-08-26T13:34:38.370Z,3.10
2022-08-26T13:37:06.280Z,3.50
2022-08-26T13:39:33.603Z,3.35
2022-08-26T13:42:01.197Z,3.15
2022-08-26T13:44:28.741Z,3.40
2022-08-26T13:46:56.108Z,3.28
2022-08-26T13:49:25.450Z,3.08
2022-08-26T13:51:55.738Z,2.80
2022-08-26T13:54:23.079Z,2.90
2022-08-26T13:56:50.408Z,3.10
2022-08-26T13:59:18.020Z,2.92
2022-08-26T14:01:45.412Z,3.08
2022-08-26T14:04:12.886Z,3.63
2022-08-26T14:06:40.470Z,3.20
2022-08-26T14:09:07.845Z,3.40
2022-08-26T14:11:50.735Z,3.00
2022-08-26T14:14:22.217Z,3.83
2022-08-26T14:16:58.938Z,3.00
2022-08-26T14:19:27.409Z,2.50
2022-08-26T14:21:54.862Z,2.83
2022-08-26T14:24:22.174Z,2.75
2022-08-26T14:26:49.722Z,2.72
2022-08-26T14:29:17.166Z,2.70
2022-08-26T14:31:44.688Z,2.70
2022-08-26T14:34:13.078Z,2.80
2022-08-26T14:36:40.504Z,2.58
2022-08-26T14:39:09.593Z,3.00
2022-08-26T14:41:54.180Z,2.75
2022-08-26T14:44:24.638Z,2.83
2022-08-26T14:46:55.207Z,2.45
2022-08-26T14:49:23.765Z,2.70
2022-08-26T14:51:51.087Z,2.75
2022-08-26T14:54:19.079Z,2.40
2022-08-26T14:56:46.390Z,2.88
2022-08-26T14:59:15.611Z,2.60
2022-08-26T15:01:43.494Z,2.78
2022-08-26T15:04:11.012Z,2.80
2022-08-26T15:06:38.453Z,2.30
2022-08-26T15:09:06.225Z,2.35
2022-08-26T15:11:33.622Z,2.30
2022-08-26T15:14:00.967Z,2.55
2022-08-26T15:16:28.708Z,2.50
2022-08-26T15:18:56.334Z,2.30
2022-08-26T15:21:24.224Z,2.35
2022-08-26T15:23:52.436Z,2.30
2022-08-26T15:26:20.299Z,2.22
2022-08-26T15:28:48.090Z,2.58
2022-08-26T15:31:16.082Z,2.50
2022-08-26T15:33:43.432Z,2.63
2022-08-26T15:36:10.913Z,2.80
2022-08-26T15:38:40.154Z,2.63
2022-08-26T15:41:08.389Z,2.53
2022-08-26T15:43:36.403Z,2.80
2022-08-26T15:46:04.382Z,2.67
2022-08-26T15:48:31.828Z,2.45
2022-08-26T15:51:00.930Z,2.47
2022-08-26T15:53:30.228Z,3.03
2022-08-26T15:55:58.805Z,2.78
2022-08-26T15:58:27.065Z,3.17
2022-08-26T16:00:55.681Z,2.80
2022-08-26T16:03:23.062Z,2.72
2022-08-26T16:05:50.455Z,3.03
2022-08-26T16:08:17.995Z,3.00
2022-08-26T16:10:50.351Z,2.90
2022-08-26T16:13:19.687Z,2.95
2022-08-26T16:15:47.947Z,2.40
2022-08-26T16:18:15.773Z,2.80
2022-08-26T16:21:06.519Z,2.70
2022-08-26T16:23:38.645Z,2.90
2022-08-26T16:26:10.656Z,2.75
2022-08-26T16:28:38.329Z,3.10
2022-08-26T16:31:06.663Z,2.53
2022-08-26T16:33:34.187Z,2.42
2022-08-26T16:36:01.514Z,2.47
2022-08-26T16:38:28.886Z,2.42
2022-08-26T16:40:56.437Z,2.58
2022-08-26T16:43:23.712Z,2.70
2022-08-26T16:45:51.135Z,2.90
2022-08-26T16:48:18.735Z,2.90
2022-08-26T16:50:46.148Z,2.38
2022-08-26T16:55:46.160Z,2.75
2022-08-26T16:58:13.636Z,2.72
2022-08-26T17:00:40.901Z,2.30
2022-08-26T17:03:08.910Z,2.90
2022-08-26T17:05:36.320Z,2.90
2022-08-26T17:08:04.550Z,2.30
2022-08-26T17:10:32.490Z,2.70
2022-08-26T17:12:59.917Z,2.53
2022-08-26T17:15:27.661Z,3.35
2022-08-26T17:17:55.338Z,3.13
2022-08-26T17:20:23.286Z,2.28
2022-08-26T17:22:52.024Z,2.67
2022-08-26T17:25:21.668Z,2.53
2022-08-26T17:27:48.977Z,2.50
2022-08-26T17:30:16.558Z,2.80
2022-08-26T17:32:43.968Z,2.70
2022-08-26T17:35:13.117Z,2.70
2022-08-26T17:37:41.236Z,2.40
2022-08-26T17:40:09.648Z,2.80
2022-08-26T17:42:38.325Z,2.75
2022-08-26T17:45:06.330Z,3.00
2022-08-26T17:47:34.281Z,2.90
2022-08-26T17:50:01.697Z,2.67
2022-08-26T17:52:29.569Z,2.85
2022-08-26T17:54:57.023Z,2.72
2022-08-26T17:57:24.773Z,2.78
2022-08-26T17:59:52.302Z,2.38
2022-08-26T18:02:20.223Z,2.63
2022-08-26T18:04:47.610Z,2.65
2022-08-26T18:07:15.706Z,3.08
2022-08-26T18:09:43.606Z,2.78
2022-08-26T18:12:11.274Z,2.55
2022-08-26T18:14:38.809Z,2.80
2022-08-26T18:17:06.073Z,2.70
2022-08-26T18:19:33.368Z,2.70
2022-08-26T18:22:00.915Z,2.88
2022-08-26T18:24:28.173Z,3.25
2022-08-26T18:26:55.488Z,2.88
2022-08-26T18:29:23.012Z,3.67
2022-08-26T18:31:50.261Z,3.75
2022-08-26T18:34:17.546Z,2.67
2022-08-26T18:36:45.261Z,3.00
2022-08-26T18:39:13.248Z,2.65
2022-08-26T18:41:42.527Z,3.65
2022-08-26T18:44:13.590Z,3.92
2022-08-26T18:46:41.596Z,3.03
2022-08-26T18:49:10.267Z,2.95
2022-08-26T18:51:37.808Z,2.95
2022-08-26T18:54:06.448Z,3.00
2022-08-26T18:56:35.142Z,4.22
2022-08-26T18:59:03.221Z,3.58
2022-08-26T19:01:31.021Z,4.47
2022-08-26T19:03:59.388Z,5.18
2022-08-26T19:06:27.701Z,4.22
2022-08-26T19:08:55.814Z,5.43
2022-08-26T19:11:31.221Z,3.25
2022-08-26T19:14:01.308Z,3.53
2022-08-26T19:16:29.010Z,3.97
2022-08-26T19:18:59.479Z,5.60
2022-08-26T19:21:27.279Z,3.97
2022-08-26T19:23:58.671Z,3.63
2022-08-26T19:26:26.642Z,4.10
2022-08-26T19:28:54.266Z,4.78
2022-08-26T19:31:21.701Z,4.75
2022-08-26T19:33:49.070Z,4.25
2022-08-26T19:36:18.517Z,3.78
2022-08-26T19:38:45.931Z,6.10
2022-08-26T19:41:17.966Z,6.05
2022-08-26T19:43:46.185Z,8.02
2022-08-26T19:46:16.916Z,7.55
2022-08-26T19:48:44.625Z,6.55
2022-08-26T19:51:15.508Z,6.57
2022-08-26T19:53:43.535Z,6.32
2022-08-26T19:56:11.099Z,5.78
2022-08-26T19:58:38.701Z,6.70
2022-08-26T20:01:06.315Z,6.72
2022-08-26T20:03:34.141Z,6.35
2022-08-26T20:06:05.656Z,5.28
2022-08-26T20:08:33.472Z,5.25
2022-08-26T20:11:05.415Z,6.45
2022-08-26T20:13:33.005Z,6.00
2022-08-26T20:16:00.298Z,5.28
2022-08-26T20:18:27.727Z,4.70
2022-08-26T20:20:55.394Z,5.32
2022-08-26T20:23:22.684Z,4.30
2022-08-26T20:25:50.075Z,3.72
2022-08-26T20:28:17.690Z,3.92
2022-08-26T20:30:45.002Z,4.18
2022-08-26T20:33:12.313Z,4.93
2022-08-26T20:35:39.857Z,4.30
2022-08-26T20:38:07.163Z,4.50
2022-08-26T20:40:34.547Z,4.60
2022-08-26T20:43:02.119Z,4.60
2022-08-26T20:45:29.551Z,4.88
2022-08-26T20:47:56.914Z,4.57
2022-08-26T20:50:24.423Z,4.13
2022-08-26T20:52:51.719Z,4.43
2022-08-26T20:55:19.386Z,3.85
2022-08-26T20:57:48.365Z,4.57
2022-08-26T21:00:15.789Z,5.07
2022-08-26T21:02:44.928Z,5.20
2022-08-26T21:05:12.519Z,6.45
2022-08-26T21:07:39.890Z,5.72
2022-08-26T21:10:08.308Z,5.40
2022-08-26T21:12:36.389Z,5.22
2022-08-26T21:15:04.199Z,4.60
2022-08-26T21:17:31.722Z,4.32
2022-08-26T21:19:59.258Z,4.13
2022-08-26T21:22:26.553Z,4.05
2022-08-26T21:24:53.925Z,4.10
2022-08-26T21:27:26.302Z,3.63
2022-08-26T21:29:53.849Z,3.95
2022-08-26T21:32:21.167Z,4.43
2022-08-26T21:34:48.719Z,4.05
2022-08-26T21:37:16.612Z,4.32
2022-08-26T21:39:44.399Z,4.35
2022-08-26T21:42:11.989Z,4.35
2022-08-26T21:44:39.336Z,5.07
2022-08-26T21:47:06.667Z,5.70
2022-08-26T21:49:35.291Z,5.07
2022-08-26T21:52:02.776Z,5.50
2022-08-26T21:54:30.964Z,4.93
2022-08-26T21:56:58.890Z,5.70
2022-08-26T21:59:26.279Z,4.90
2022-08-26T22:01:53.584Z,4.35
2022-08-26T22:04:21.198Z,4.95
2022-08-26T22:06:49.980Z,5.15
2022-08-26T22:09:19.694Z,5.40
2022-08-26T22:11:47.471Z,5.05
2022-08-26T22:14:15.678Z,5.18
2022-08-26T22:16:50.113Z,4.07
2022-08-26T22:19:19.649Z,4.43
2022-08-26T22:21:48.037Z,4.63
2022-08-26T22:24:15.985Z,4.65
2022-08-26T22:26:43.591Z,4.55
2022-08-26T22:29:11.109Z,4.70
2022-08-26T22:31:38.906Z,4.93
2022-08-26T22:34:07.753Z,4.75
2022-08-26T22:36:35.562Z,5.32
2022-08-26T22:39:10.872Z,4.50
2022-08-26T22:41:38.196Z,4.47
2022-08-26T22:44:05.582Z,4.78
2022-08-26T22:46:33.190Z,5.20
2022-08-26T22:49:00.559Z,4.63
2022-08-26T22:51:27.893Z,5.18
2022-08-26T22:53:55.371Z,4.95
2022-08-26T22:56:22.741Z,5.68
2022-08-26T22:58:50.052Z,5.00
2022-08-26T23:01:17.601Z,5.43
2022-08-26T23:03:44.982Z,5.70
2022-08-26T23:06:12.351Z,6.00
2022-08-26T23:08:39.840Z,5.22
2022-08-26T23:11:08.657Z,5.85
2022-08-26T23:13:35.982Z,5.80
2022-08-26T23:16:05.356Z,5.53
2022-08-26T23:18:32.844Z,5.57
2022-08-26T23:21:00.156Z,5.50
2022-08-26T23:23:27.712Z,5.95
2022-08-26T23:25:55.574Z,6.10
2022-08-26T23:28:23.047Z,5.05
2022-08-26T23:30:50.567Z,5.50
2022-08-26T23:33:17.837Z,6.45
2022-08-26T23:35:45.387Z,5.95
2022-08-26T23:38:14.565Z,5.35
2022-08-26T23:40:41.945Z,5.82
2022-08-26T23:43:10.343Z,6.28
2022-08-26T23:45:38.483Z,5.53
2022-08-26T23:48:06.505Z,5.90
2022-08-26T23:50:33.985Z,5.78
2022-08-26T23:53:01.580Z,5.60
2022-08-26T23:55:28.940Z,5.25
2022-08-26T23:57:56.251Z,6.07
